メインページ
METAR-TAF:

METAR-TAF

空港 :

ケベック・シティー, ケベック州, カナダ

ケベック・ジャン・ルサージ国際空港

緯度: 46-48N, 経度: 071-23W, 海抜: 70m

現時点の気象観測

当レポートは1時間38分前の21:00(UTC)に作成
西/南西の風 11kt、最大17ktの突風を伴う、南/南西から西の間で変化する
気温 25°C
湿度 47%
気圧 1018 hPa
視程: 48.3km
高度4000ftの雲は散在している
高度18000ftの雲は散在している
高度24000ftの千切れ雲あり

METAR: CYQB 262100Z 24011G17KT 200V270 30SM SCT040 SCT180 BKN240 25/13 A3005 RMK CU3AC1CI2 SLP177 DENSITY ALT 1400FT

時間: 18:38 (22:38 UTC)

予報

当レポートは5時間0分前の17:38(UTC)に作成
予報は26日の 18時(UTC)から 27日の 18時(UTC)まで有効
西/南西の風 12kt
視程: 10km
高度4000ftの雲はほとんどない
27日の 0000時(UTC)から
西/南西の風 8kt、最大18ktの突風を伴う
視程: 10km
高度4000ftの千切れ雲あり
高度18000ftの千切れ雲あり
27日の 0300時(UTC)から
西/南西の風 10kt、最大20ktの突風を伴う
視程: 10km
高度3000ftの千切れ雲あり
高度13000ftの千切れ雲あり
27日の 03時(UTC)から 27日の 05時(UTC)まで一時的に
視程: 10km
弱いにわか雨
27日の 0500時(UTC)から
南西の風 6kt
視程: 8.0km
高度800ftの雲は散在している
高度1500ftの千切れ雲あり
弱いにわか雨, 靄
27日の 0700時(UTC)から
南西の風 7kt
視程: 8.0km
高度800ftの千切れ雲あり
高度1500ftの曇り
弱いにわか雨, 靄
27日の 14時(UTC)から 27日の 16時(UTC)まで徐々に
南西の風 12kt、最大22ktの突風を伴う

TAF: CYQB 261738Z 2618/2718 25012KT P6SM FEW040 FM270000 24008G18KT P6SM BKN040 BKN180 FM270300 24010G20KT P6SM BKN030 BKN130 TEMPO 2703/2705 P6SM -SHRA FM270500 23006KT 5SM -SHRA BR SCT008 BKN015 FM270700 23007KT 5SM -SHRA BR BKN008 OVC015 BECMG 2714/2716 23012G22KT RMK NXT FCST BY 270000Z

4,000以上の空港の気象観測と天気予報(METAR報とTAF報)

利用可能な観測所は地図上に黄色い丸と赤い丸で示す。

丸の上にカーソルを重ねると観測所名を参照できる。

次にクリックすると気象観測と天気予報を参照できる。

マップの切り替え:黒色「×」印の緑ボタンをクリックして拡大、「-」印の緑ボタンをクリックして縮小、緑色の三角印をクリックして隣りの地図に切り替え


METAR-TAF: